createdAt,value
2019-01-17T00:02:15.805Z,77.01
2019-01-17T00:06:42.498Z,76.84
2019-01-17T00:11:00.332Z,76.86
2019-01-17T00:15:25.676Z,76.45
2019-01-17T00:19:55.747Z,76.02
2019-01-17T00:24:19.401Z,75.43
2019-01-17T00:28:52.954Z,73.58
2019-01-17T00:33:17.743Z,73.23
2019-01-17T00:37:42.113Z,73.48
2019-01-17T00:42:09.279Z,73.87
2019-01-17T00:46:37.976Z,74.01
2019-01-17T00:51:06.945Z,74.24
2019-01-17T00:55:31.772Z,74.49
2019-01-17T01:00:13.029Z,74.68
2019-01-17T01:04:38.143Z,74.36
2019-01-17T01:09:02.468Z,74.35
2019-01-17T01:13:36.116Z,74.43
2019-01-17T01:18:04.702Z,74.82
2019-01-17T01:22:30.738Z,75.43
2019-01-17T01:26:59.548Z,76.55
2019-01-17T01:31:42.615Z,76.86
2019-01-17T01:36:01.823Z,77.04
2019-01-17T01:40:37.167Z,76.89
2019-01-17T01:44:57.820Z,77.02
2019-01-17T01:49:23.765Z,77.18
2019-01-17T01:53:30.735Z,77.12
2019-01-17T01:57:40.447Z,77.25
2019-01-17T02:01:47.497Z,77.47
2019-01-17T02:05:56.770Z,78.01
2019-01-17T02:10:03.893Z,78.59
2019-01-17T02:14:11.655Z,78.90
2019-01-17T02:18:18.524Z,79.37
2019-01-17T02:22:25.554Z,79.75
2019-01-17T02:26:33.049Z,80.14
2019-01-17T02:30:42.586Z,80.42
2019-01-17T02:34:49.697Z,80.90
2019-01-17T02:38:56.741Z,81.36
2019-01-17T02:43:03.788Z,81.63
2019-01-17T02:47:10.724Z,82.07
2019-01-17T02:51:17.762Z,82.12
2019-01-17T02:55:24.873Z,82.65
2019-01-17T02:59:31.978Z,83.07
2019-01-17T03:03:40.164Z,83.62
2019-01-17T03:07:47.091Z,84.60
2019-01-17T03:11:54.114Z,85.42
2019-01-17T03:16:01.171Z,85.82
2019-01-17T03:20:09.806Z,85.94
2019-01-17T03:24:16.754Z,86.57
2019-01-17T03:28:23.850Z,87.23
2019-01-17T03:32:30.785Z,87.88
2019-01-17T03:36:38.823Z,88.10
2019-01-17T03:40:46.530Z,88.48
2019-01-17T03:44:53.595Z,89.16
2019-01-17T03:49:03.480Z,88.93
2019-01-17T03:53:12.569Z,89.78
2019-01-17T03:57:19.527Z,91.17
2019-01-17T04:01:26.637Z,92.79
2019-01-17T04:05:33.650Z,93.08
2019-01-17T04:09:40.675Z,93.24
2019-01-17T04:13:49.166Z,93.42
2019-01-17T04:17:56.083Z,93.40
2019-01-17T04:22:06.388Z,94.10
2019-01-17T04:26:14.467Z,95.11
2019-01-17T04:30:21.434Z,96.57
2019-01-17T04:34:30.183Z,98.12
2019-01-17T04:38:37.155Z,99.64
2019-01-17T04:42:44.317Z,100.00
2019-01-17T04:46:52.152Z,100.00
2019-01-17T04:50:59.281Z,100.00
2019-01-17T04:55:10.483Z,100.00
2019-01-17T04:59:17.393Z,100.00
2019-01-17T05:03:24.301Z,100.00
2019-01-17T05:07:32.019Z,100.00
2019-01-17T05:11:41.115Z,100.00
2019-01-17T05:15:53.913Z,100.00
2019-01-17T05:20:00.619Z,100.00
2019-01-17T05:24:08.184Z,100.00
2019-01-17T05:28:15.646Z,100.00
2019-01-17T05:32:27.926Z,100.00
2019-01-17T05:36:35.631Z,100.00
2019-01-17T05:40:45.604Z,100.00
2019-01-17T05:44:52.836Z,100.00
2019-01-17T05:49:01.686Z,100.00
2019-01-17T05:53:09.147Z,100.00
2019-01-17T05:57:17.569Z,100.00
2019-01-17T06:01:24.617Z,100.00
2019-01-17T06:05:34.013Z,100.00
2019-01-17T06:09:41.391Z,100.00
2019-01-17T06:13:51.537Z,100.00
2019-01-17T06:17:59.006Z,100.00
2019-01-17T06:22:06.162Z,100.00
2019-01-17T06:26:16.590Z,100.00
2019-01-17T06:30:24.005Z,100.00
2019-01-17T06:34:33.265Z,100.00
2019-01-17T06:38:40.394Z,100.00
2019-01-17T06:42:47.910Z,100.00
2019-01-17T06:46:55.544Z,100.00
2019-01-17T06:51:02.821Z,100.00
2019-01-17T06:55:10.313Z,100.00
2019-01-17T06:59:20.667Z,100.00
2019-01-17T07:03:28.482Z,100.00
2019-01-17T07:07:39.021Z,100.00
2019-01-17T07:11:46.750Z,100.00
2019-01-17T07:16:10.055Z,100.00
2019-01-17T07:20:30.476Z,100.00
2019-01-17T07:24:28.644Z,100.00
2019-01-17T07:28:35.779Z,100.00
2019-01-17T07:32:43.011Z,100.00
2019-01-17T07:36:51.125Z,100.00
2019-01-17T07:40:59.255Z,100.00
2019-01-17T07:45:09.301Z,100.00
2019-01-17T07:49:20.133Z,100.00
2019-01-17T07:53:27.228Z,100.00
2019-01-17T07:57:34.522Z,100.00
2019-01-17T08:01:41.607Z,100.00
2019-01-17T08:05:49.170Z,100.00
2019-01-17T08:09:59.903Z,100.00
2019-01-17T08:14:08.149Z,100.00
2019-01-17T08:18:18.673Z,100.00
2019-01-17T08:22:23.693Z,100.00
2019-01-17T08:26:40.809Z,100.00
2019-01-17T08:30:50.499Z,100.00
2019-01-17T08:35:00.451Z,100.00
2019-01-17T08:39:10.523Z,100.00
2019-01-17T08:43:18.091Z,100.00
2019-01-17T08:47:25.071Z,100.00
2019-01-17T08:51:32.296Z,100.00
2019-01-17T08:55:40.968Z,100.00
2019-01-17T08:59:48.036Z,100.00
2019-01-17T09:03:55.201Z,100.00
2019-01-17T09:08:02.527Z,100.00
2019-01-17T09:12:10.940Z,100.00
2019-01-17T09:16:21.181Z,100.00
2019-01-17T09:20:41.179Z,100.00
2019-01-17T09:24:48.824Z,100.00
2019-01-17T09:28:59.016Z,100.00
2019-01-17T09:33:06.331Z,100.00
2019-01-17T09:37:13.454Z,100.00
2019-01-17T09:41:22.817Z,100.00
2019-01-17T09:45:31.692Z,100.00
2019-01-17T09:49:50.662Z,100.00
2019-01-17T09:54:00.615Z,100.00
2019-01-17T09:58:12.154Z,100.00
2019-01-17T10:02:19.230Z,100.00
2019-01-17T10:06:31.775Z,100.00
2019-01-17T10:10:41.249Z,100.00
2019-01-17T10:15:01.398Z,100.00
2019-01-17T10:20:19.015Z,100.00
2019-01-17T10:25:12.619Z,100.00
2019-01-17T10:30:26.378Z,100.00
2019-01-17T10:35:32.474Z,100.00
2019-01-17T10:40:48.162Z,97.96
2019-01-17T10:46:16.116Z,97.36
2019-01-17T10:51:18.093Z,92.99
2019-01-17T10:56:08.762Z,93.26
2019-01-17T11:01:13.009Z,94.68
2019-01-17T11:06:23.252Z,95.32
2019-01-17T11:11:16.012Z,94.02
2019-01-17T11:16:07.925Z,92.09
2019-01-17T11:21:08.124Z,91.92
2019-01-17T11:26:34.322Z,91.54
2019-01-17T11:31:36.637Z,85.79
2019-01-17T11:36:33.970Z,79.61
2019-01-17T11:41:44.386Z,79.71
2019-01-17T11:46:42.155Z,80.90
2019-01-17T11:51:52.738Z,77.28
2019-01-17T11:56:49.405Z,74.75
2019-01-17T12:01:59.882Z,73.45
2019-01-17T12:06:06.940Z,72.84
2019-01-17T12:10:14.165Z,72.29
2019-01-17T12:14:21.232Z,73.17
2019-01-17T12:18:28.309Z,72.13
2019-01-17T12:22:36.793Z,72.43
2019-01-17T12:26:47.481Z,72.25
2019-01-17T12:30:52.487Z,72.93
2019-01-17T12:35:00.933Z,73.98
2019-01-17T12:39:11.505Z,73.86
2019-01-17T12:43:18.523Z,73.80
2019-01-17T12:47:28.386Z,74.08
2019-01-17T12:51:35.751Z,68.29
2019-01-17T12:55:43.135Z,65.19
2019-01-17T12:59:50.636Z,63.82
2019-01-17T13:04:00.843Z,66.34
2019-01-17T13:08:11.604Z,66.90
2019-01-17T13:12:20.564Z,67.58
2019-01-17T13:16:28.121Z,69.19
2019-01-17T13:20:35.364Z,70.49
2019-01-17T13:24:44.201Z,72.38
2019-01-17T13:28:52.654Z,76.25
2019-01-17T13:33:03.871Z,76.60
2019-01-17T13:37:12.048Z,74.74
2019-01-17T13:41:19.472Z,71.35
2019-01-17T13:45:32.494Z,71.61
2019-01-17T13:49:43.698Z,72.63
2019-01-17T13:54:00.928Z,73.17
2019-01-17T13:58:09.520Z,73.10
2019-01-17T14:02:21.010Z,71.79
2019-01-17T14:06:36.513Z,71.50
2019-01-17T14:10:43.828Z,71.63
2019-01-17T14:14:51.140Z,71.58
2019-01-17T14:18:58.511Z,70.82
2019-01-17T14:23:09.125Z,70.16
2019-01-17T14:27:16.507Z,70.44
2019-01-17T14:31:25.052Z,70.59
2019-01-17T14:35:35.784Z,72.35
2019-01-17T14:39:50.179Z,75.25
2019-01-17T14:44:05.662Z,76.72
2019-01-17T14:48:15.126Z,77.25
2019-01-17T14:52:22.413Z,77.48
2019-01-17T14:56:29.636Z,77.52
2019-01-17T15:00:37.681Z,78.03
2019-01-17T15:04:44.880Z,78.38
2019-01-17T15:08:52.216Z,81.02
2019-01-17T15:13:02.837Z,94.38
2019-01-17T15:17:14.706Z,99.54
2019-01-17T15:21:22.103Z,100.00
2019-01-17T15:25:30.530Z,100.00
2019-01-17T15:29:38.307Z,100.00
2019-01-17T15:33:53.392Z,100.00
2019-01-17T15:38:09.838Z,100.00
2019-01-17T15:42:21.086Z,100.00
2019-01-17T15:46:38.580Z,100.00
2019-01-17T15:50:53.269Z,100.00
2019-01-17T15:55:04.819Z,100.00
2019-01-17T15:59:15.349Z,100.00
2019-01-17T16:03:43.389Z,100.00
2019-01-17T16:08:00.226Z,100.00
2019-01-17T16:12:39.759Z,98.12
2019-01-17T16:17:11.660Z,98.43
2019-01-17T16:21:22.720Z,98.25
2019-01-17T16:25:30.442Z,97.44
2019-01-17T16:29:50.601Z,97.92
2019-01-17T16:34:03.631Z,97.90
2019-01-17T16:38:11.061Z,97.96
2019-01-17T16:42:19.819Z,98.98
2019-01-17T16:46:28.500Z,99.25
2019-01-17T16:50:39.824Z,99.44
2019-01-17T16:54:49.455Z,99.45
2019-01-17T16:59:04.379Z,97.78
2019-01-17T17:03:16.752Z,96.43
2019-01-17T17:07:24.461Z,97.76
2019-01-17T17:11:31.961Z,98.15
2019-01-17T17:15:41.330Z,99.24
2019-01-17T17:19:50.901Z,100.00
2019-01-17T17:24:00.836Z,100.00
2019-01-17T17:28:10.915Z,100.00
2019-01-17T17:32:20.281Z,100.00
2019-01-17T17:36:28.825Z,100.00
2019-01-17T17:40:39.649Z,100.00
2019-01-17T17:44:48.011Z,100.00
2019-01-17T17:49:06.273Z,99.53
2019-01-17T17:53:14.074Z,98.74
2019-01-17T17:57:26.911Z,98.12
2019-01-17T18:01:43.528Z,96.22
2019-01-17T18:05:55.042Z,93.75
2019-01-17T18:10:04.492Z,93.32
2019-01-17T18:14:11.849Z,92.08
2019-01-17T18:18:19.211Z,92.14
2019-01-17T18:22:26.644Z,91.69
2019-01-17T18:26:34.839Z,91.83
2019-01-17T18:30:41.863Z,93.86
2019-01-17T18:34:49.033Z,96.31
2019-01-17T18:38:58.050Z,92.95
2019-01-17T18:43:05.154Z,86.34
2019-01-17T18:47:13.122Z,87.53
2019-01-17T18:51:20.109Z,86.34
2019-01-17T18:55:30.186Z,83.35
2019-01-17T18:59:38.643Z,83.66
2019-01-17T19:03:45.775Z,84.20
2019-01-17T19:07:59.114Z,84.58
2019-01-17T19:12:06.740Z,84.88
2019-01-17T19:16:14.254Z,85.38
2019-01-17T19:20:23.465Z,85.55
2019-01-17T19:24:33.526Z,84.78
2019-01-17T19:28:44.931Z,84.35
2019-01-17T19:32:56.439Z,83.73
2019-01-17T19:37:06.299Z,83.35
2019-01-17T19:41:16.986Z,83.83
2019-01-17T19:45:41.643Z,84.25
2019-01-17T19:49:52.572Z,85.89
2019-01-17T19:54:00.402Z,82.89
2019-01-17T19:58:07.939Z,83.70
2019-01-17T20:02:15.477Z,83.99
2019-01-17T20:06:24.149Z,83.75
2019-01-17T20:10:37.253Z,83.74
2019-01-17T20:15:32.777Z,83.79
2019-01-17T20:19:33.440Z,83.64
2019-01-17T20:23:41.364Z,83.69
2019-01-17T20:27:48.940Z,84.24
2019-01-17T20:31:59.875Z,84.90
2019-01-17T20:36:10.761Z,85.47
2019-01-17T20:40:31.460Z,85.21
2019-01-17T20:44:38.741Z,84.83
2019-01-17T20:48:48.186Z,85.88
2019-01-17T20:52:56.553Z,85.08
2019-01-17T20:57:09.800Z,85.67
2019-01-17T21:02:58.329Z,85.80
2019-01-17T21:08:07.468Z,86.22
2019-01-17T21:12:53.364Z,86.22
2019-01-17T21:17:05.236Z,85.88
2019-01-17T21:21:12.487Z,85.70
2019-01-17T21:25:20.988Z,84.84
2019-01-17T21:29:31.011Z,83.58
2019-01-17T21:33:38.912Z,82.98
2019-01-17T21:37:48.046Z,81.78
2019-01-17T21:41:56.626Z,83.09
2019-01-17T21:46:06.409Z,85.12
2019-01-17T21:50:18.375Z,86.78
2019-01-17T21:54:25.612Z,86.85
2019-01-17T21:58:34.485Z,85.55
2019-01-17T22:02:44.229Z,85.94
2019-01-17T22:06:51.929Z,84.85
2019-01-17T22:11:02.404Z,83.27
2019-01-17T22:15:19.329Z,82.71
2019-01-17T22:19:28.892Z,82.39
2019-01-17T22:23:40.113Z,81.27
2019-01-17T22:27:48.530Z,81.28
2019-01-17T22:31:55.784Z,80.82
2019-01-17T22:36:03.215Z,79.99
2019-01-17T22:40:16.131Z,80.54
2019-01-17T22:44:25.141Z,80.50
2019-01-17T22:48:32.274Z,81.53
2019-01-17T22:52:51.388Z,81.07
2019-01-17T22:57:01.592Z,81.12
2019-01-17T23:01:28.151Z,81.51
2019-01-17T23:05:35.216Z,81.54
2019-01-17T23:09:45.960Z,81.35
2019-01-17T23:13:57.796Z,80.83
2019-01-17T23:18:06.155Z,80.29
2019-01-17T23:22:15.061Z,79.58
2019-01-17T23:26:27.232Z,80.94
2019-01-17T23:30:35.192Z,79.70
2019-01-17T23:34:45.305Z,78.33
2019-01-17T23:38:52.638Z,77.30
2019-01-17T23:42:59.697Z,78.39
2019-01-17T23:47:10.544Z,78.63
2019-01-17T23:51:22.058Z,80.50
2019-01-17T23:55:29.044Z,88.41
2019-01-17T23:59:44.598Z,89.84
